Time;durP1;ratioP1;P1;durP2;ratioP2;P2;SDS_P1;SDS_P2;PMS_P1;PMS_P2;Temp;Humidity;BMP_temperature;BMP_pressure;BME280_temperature;BME280_humidity;BME280_pressure;Samples;Min_cycle;Max_cycle;Signal;HPM_P1;HPM_P2
2022/09/07 00:01:49;;;;;;;3.72;2.17;;;;;;;14.59;51.95;100403.78;30731425;28;96761;-60
2022/09/07 00:16:50;;;;;;;5.25;2.60;;;;;;;14.34;52.72;100401.47;30744166;28;97011;-60
2022/09/07 00:31:50;;;;;;;4.38;1.92;;;;;;;14.21;53.12;100381.53;30749716;28;96778;-60
2022/09/07 00:46:50;;;;;;;4.53;1.90;;;;;;;13.85;53.60;100370.81;30748328;28;99528;-60
2022/09/07 01:01:51;;;;;;;4.03;2.00;;;;;;;13.52;54.44;100372.03;30747069;28;97048;-60
2022/09/07 01:17:17;;;;;;;4.57;2.40;;;;;;;13.57;54.70;100362.63;30745580;28;97301;-60
2022/09/07 01:32:45;;;;;;;5.00;2.30;;;;;;;13.45;55.55;100367.59;30744116;28;96787;-60
2022/09/07 01:47:55;;;;;;;5.97;2.60;;;;;;;13.44;55.55;100355.25;30742493;28;96710;-60
2022/09/07 02:03:08;;;;;;;4.00;2.37;;;;;;;13.41;55.62;100347.56;30741318;28;96885;-60
2022/09/07 02:18:11;;;;;;;7.40;2.60;;;;;;;13.28;55.86;100348.22;30739675;28;96675;-61
2022/09/07 02:33:11;;;;;;;4.60;2.50;;;;;;;13.15;56.51;100355.03;30738419;28;96784;-60
2022/09/07 02:48:15;;;;;;;6.57;2.38;;;;;;;13.16;56.31;100334.44;30735744;28;96835;-60
2022/09/07 03:03:31;;;;;;;3.33;1.70;;;;;;;13.03;55.89;100330.56;30734621;28;96767;-60
2022/09/07 03:18:31;;;;;;;5.83;2.03;;;;;;;12.82;56.04;100333.97;30734082;28;97144;-60
2022/09/07 03:33:31;;;;;;;4.45;1.98;;;;;;;12.73;55.95;100328.88;30731299;28;96770;-60
2022/09/07 03:48:33;;;;;;;5.68;2.25;;;;;;;12.68;56.20;100338.25;30740373;28;97732;-59
2022/09/07 04:03:34;;;;;;;3.03;1.87;;;;;;;12.66;55.97;100316.22;30750240;28;96690;-59
2022/09/07 04:18:35;;;;;;;5.43;1.98;;;;;;;12.46;56.01;100307.84;30749155;28;96738;-59
2022/09/07 04:33:35;;;;;;;7.80;2.43;;;;;;;12.38;56.14;100299.91;30740594;28;97058;-59
2022/09/07 04:48:35;;;;;;;8.98;2.88;;;;;;;12.35;56.10;100298.44;30732792;28;97304;-60
2022/09/07 05:03:37;;;;;;;5.85;2.40;;;;;;;12.41;55.71;100299.56;30782760;28;97461;-59
2022/09/07 05:18:38;;;;;;;5.40;2.03;;;;;;;12.85;55.61;100301.50;30894696;28;96820;-60
2022/09/07 05:33:38;;;;;;;4.05;2.00;;;;;;;13.13;54.86;100310.75;30878499;28;97458;-60
2022/09/07 05:48:39;;;;;;;4.85;2.00;;;;;;;13.51;53.72;100316.84;30855781;28;97042;-60
2022/09/07 06:03:41;;;;;;;6.60;2.35;;;;;;;14.04;53.21;100310.47;30857603;28;98631;-59
2022/09/07 06:18:44;;;;;;;5.80;2.40;;;;;;;14.58;52.23;100327.84;30945959;28;96717;-60
2022/09/07 06:33:46;;;;;;;6.93;2.30;;;;;;;15.21;50.86;100314.53;30869738;28;96877;-60
2022/09/07 06:48:46;;;;;;;8.43;2.90;;;;;;;15.75;49.05;100320.16;30855236;28;97680;-60
2022/09/07 07:03:47;;;;;;;7.80;3.05;;;;;;;16.58;48.16;100308.34;30777870;28;98027;-61
2022/09/07 07:18:51;;;;;;;7.18;3.03;;;;;;;17.40;46.21;100308.84;30921268;28;97175;-60
2022/09/07 07:33:52;;;;;;;6.13;3.20;;;;;;;18.73;44.68;100305.59;30865593;28;97565;-62
2022/09/07 07:48:53;;;;;;;7.40;2.33;;;;;;;19.73;42.40;100314.50;30847033;28;97193;-61
2022/09/07 08:03:53;;;;;;;6.97;3.05;;;;;;;20.58;41.15;100294.53;30844647;28;97188;-61
2022/09/07 08:18:53;;;;;;;9.98;5.00;;;;;;;21.82;39.45;100296.41;30886193;28;97813;-61
2022/09/07 08:33:54;;;;;;;7.73;3.00;;;;;;;22.97;37.91;100299.66;30847673;28;98283;-62
2022/09/07 08:48:56;;;;;;;21.43;3.80;;;;;;;24.62;35.98;100276.19;30864000;28;96842;-61
2022/09/07 09:03:57;;;;;;;8.30;3.53;;;;;;;27.91;31.27;100259.03;30862266;28;97338;-64
2022/09/07 09:19:22;;;;;;;8.48;3.67;;;;;;;37.65;19.73;100263.06;30857751;28;97486;-62
2022/09/07 09:34:22;;;;;;;7.33;3.37;;;;;;;41.54;15.90;100264.13;30864471;28;97366;-63
2022/09/07 09:49:27;;;;;;;5.75;3.05;;;;;;;43.87;13.68;100215.91;30861002;28;96678;-62
2022/09/07 10:04:33;;;;;;;7.67;3.30;;;;;;;45.11;12.21;100215.47;30841833;28;97173;-65
2022/09/07 10:19:36;;;;;;;6.57;3.47;;;;;;;45.16;12.24;100208.66;30859464;28;96910;-62
2022/09/07 10:35:03;;;;;;;10.47;3.20;;;;;;;46.43;11.20;100204.66;30856209;28;97394;-62
2022/09/07 10:50:10;;;;;;;8.10;3.70;;;;;;;46.59;11.21;100192.06;30854241;28;96983;-61
2022/09/07 11:05:29;;;;;;;6.23;3.27;;;;;;;46.88;10.67;100183.31;30838597;28;99885;-63
2022/09/07 11:20:32;;;;;;;9.13;3.47;;;;;;;48.01;10.16;100170.09;30821277;28;98458;-63
2022/09/07 11:35:39;;;;;;;8.87;3.00;;;;;;;40.13;15.30;100171.81;30817465;28;97424;-63
2022/09/07 11:50:47;;;;;;;6.20;3.20;;;;;;;46.43;11.01;100144.72;30810399;28;98100;-61
2022/09/07 12:06:06;;;;;;;5.43;3.00;;;;;;;40.58;15.21;100147.84;30818929;28;97386;-62
2022/09/07 12:21:46;;;;;;;6.80;3.37;;;;;;;35.52;20.19;100133.22;30837620;28;98021;-63
2022/09/07 12:36:49;;;;;;;5.30;3.17;;;;;;;33.64;22.76;100119.38;30831594;28;97554;-62
2022/09/07 12:52:00;;;;;;;6.80;3.53;;;;;;;32.13;24.46;100088.31;30827984;28;98902;-62
2022/09/07 13:07:06;;;;;;;6.83;3.90;;;;;;;30.81;26.62;100092.88;30853163;28;96976;-61
2022/09/07 13:22:29;;;;;;;7.27;4.13;;;;;;;30.52;27.62;100066.53;30863178;28;96807;-61
2022/09/07 13:37:38;;;;;;;7.27;3.80;;;;;;;30.35;28.37;100047.91;30859334;28;97428;-63
2022/09/07 13:52:54;;;;;;;4.47;3.30;;;;;;;29.45;29.39;100041.88;30853168;28;97585;-67
2022/09/07 14:07:54;;;;;;;5.00;3.57;;;;;;;28.56;31.08;100047.00;30801463;28;97132;-68
2022/09/07 14:22:55;;;;;;;5.90;3.45;;;;;;;28.10;32.15;100022.91;30787300;28;97166;-65
2022/09/07 14:38:04;;;;;;;6.43;4.35;;;;;;;27.49;33.75;100016.97;30785330;28;97415;-61
2022/09/07 14:53:09;;;;;;;6.00;4.00;;;;;;;27.02;34.44;100003.63;30867234;28;97439;-63
2022/09/07 15:08:19;;;;;;;6.50;4.33;;;;;;;26.35;35.85;100001.28;30907375;28;98019;-68
2022/09/07 15:23:19;;;;;;;9.03;4.30;;;;;;;25.81;37.24;99994.59;30777719;28;96891;-64
2022/09/07 15:38:20;;;;;;;6.95;4.40;;;;;;;25.31;38.80;99972.56;30819102;28;97402;-61
2022/09/07 15:53:20;;;;;;;10.80;4.70;;;;;;;24.98;39.68;99958.41;30825153;28;96755;-65
2022/09/07 16:08:21;;;;;;;8.75;4.40;;;;;;;24.43;40.81;99968.91;30821908;28;113474;-64
2022/09/07 16:23:21;;;;;;;8.10;4.88;;;;;;;23.93;42.14;99965.72;30824488;28;97931;-62
2022/09/07 16:38:22;;;;;;;8.00;4.28;;;;;;;23.42;43.51;99940.94;30834081;28;113471;-62
2022/09/07 16:53:22;;;;;;;11.18;4.65;;;;;;;22.92;44.77;99935.66;30726954;28;99217;-61
2022/09/07 17:08:23;;;;;;;8.25;4.57;;;;;;;22.42;45.90;99932.19;30660340;28;98981;-63
2022/09/07 17:23:23;;;;;;;11.07;5.30;;;;;;;22.05;47.25;99949.09;30682181;28;97251;-61
2022/09/07 17:38:23;;;;;;;10.18;5.68;;;;;;;21.93;48.11;99951.91;30678781;28;104476;-62
2022/09/07 17:53:24;;;;;;;11.70;5.80;;;;;;;21.57;48.60;99943.31;30626721;28;113582;-63
2022/09/07 18:08:25;;;;;;;9.07;5.73;;;;;;;21.29;49.58;99974.81;30686502;28;97422;-62
2022/09/07 18:23:25;;;;;;;10.55;5.63;;;;;;;20.93;50.45;99971.53;30604632;28;97130;-61
2022/09/07 18:38:29;;;;;;;10.53;6.27;;;;;;;20.56;51.59;99971.91;30604416;28;118113;-62
2022/09/07 18:53:29;;;;;;;10.87;5.43;;;;;;;20.24;52.58;99969.69;30606126;28;97352;-63
2022/09/07 19:08:31;;;;;;;13.40;6.05;;;;;;;19.91;53.22;99963.03;30671406;28;97295;-63
2022/09/07 19:23:32;;;;;;;11.10;6.57;;;;;;;19.65;54.34;99955.41;30729855;28;97016;-63
2022/09/07 19:38:33;;;;;;;14.93;6.30;;;;;;;19.41;55.15;99933.78;30726134;28;97038;-63
2022/09/07 19:53:35;;;;;;;10.88;8.95;;;;;;;19.16;55.93;99918.63;30727986;28;99981;-62
2022/09/07 20:08:36;;;;;;;8.57;7.13;;;;;;;18.90;56.68;99917.19;30666126;28;97064;-62
2022/09/07 20:23:37;;;;;;;8.70;6.50;;;;;;;18.64;57.26;99907.63;30667129;28;97878;-62
2022/09/07 20:38:40;;;;;;;11.90;6.40;;;;;;;18.34;58.09;99916.53;30707802;28;97137;-62
2022/09/07 20:53:41;;;;;;;9.03;6.23;;;;;;;18.09;58.92;99906.69;30747232;28;96773;-62
2022/09/07 21:08:43;;;;;;;8.45;6.60;;;;;;;17.84;59.55;99902.19;30745630;28;98915;-61
2022/09/07 21:23:43;;;;;;;10.77;6.53;;;;;;;17.63;60.17;99918.81;30744424;28;96803;-62
2022/09/07 21:38:43;;;;;;;11.65;6.15;;;;;;;17.47;60.75;99920.19;30741871;28;115373;-62
2022/09/07 21:53:44;;;;;;;9.52;7.10;;;;;;;17.35;61.11;99933.59;30743136;28;96652;-62
2022/09/07 22:08:44;;;;;;;9.82;5.82;;;;;;;17.28;61.79;99938.19;30741971;28;96588;-62
2022/09/07 22:23:47;;;;;;;7.97;6.15;;;;;;;17.22;62.00;99924.59;30740806;28;96636;-62
2022/09/07 22:38:51;;;;;;;8.00;6.10;;;;;;;16.97;62.43;99911.13;30738359;28;96800;-62
2022/09/07 22:53:52;;;;;;;10.50;6.70;;;;;;;16.71;62.75;99872.59;30736464;28;96762;-63
2022/09/07 23:08:54;;;;;;;10.33;7.23;;;;;;;16.58;63.79;99862.75;30736351;28;96725;-62
2022/09/07 23:23:57;;;;;;;12.27;7.70;;;;;;;16.62;64.20;99859.63;30734946;28;97327;-62
2022/09/07 23:38:58;;;;;;;11.37;7.83;;;;;;;16.68;64.46;99837.25;30733466;28;96634;-62
2022/09/07 23:53:59;;;;;;;12.40;7.77;;;;;;;16.64;65.01;99828.78;30732053;28;98707;-62
